Bluff City, AR

1:30 PM CDT on September 16, 2014 (GMT -0500)
HopePrescott.com Hope Office | Change Station
CLOSE
Current Station
Personal Weather Station
Location: Hope, AR
Elevation: 357 ft
Nearby Weather Stations

Elev 357 ft 33.66 °N, 93.59 °W | Updated 4 seconds ago

Partly Cloudy
Partly Cloudy
83.8 °F
Feels Like 90 °F
N
2.2
Wind Variable Wind from North
Gusts 4.5 mph

Today
High -- | Low -- °F
--% Chance of Precip.
Yesterday
High -- | Low -- °F
Precip. -- in
6:56 AM 7:17 PM
Last Quarter, 43% visible
Pressure 30.09 in
Visibility 10.0 miles
Clouds Clear
Heat Index 90 °F
Dew Point 73 °F
Humidity 69%
Rainfall 0.00 in
Snow Depth Not available.
UV 9 out of 12
Pollen 10.00 out of 12
Air Quality Not available.
Flu Activity Not available.
METAR KCDH 161815Z AUTO 00000KT 10SM CLR 30/18 A3009 RMK AO2

More Conditions Fewer Conditions

Pressure 30.09 in
Visibility 10.0 miles
Clouds Clear
Heat Index 90 °F
Dew Point 73 °F
Humidity 69%
Rainfall 0.00 in
Snow Depth Not available.
UV 9 out of 12
Pollen 10.00 out of 12
Air Quality Not available.
Flu Activity Not available.
METAR KCDH 161815Z AUTO 00000KT 10SM CLR 30/18 A3009 RMK AO2

More Conditions Fewer Conditions

10-Day Weather Forecast

Almanac

Astronomy

Sep. 16, 2014 Rise Set
Actual Time 6:56 AM CDT 7:17 PM CDT
Civil Twilight 6:31 AM CDT 7:42 PM CDT
Nautical Twilight 6:02 AM CDT 8:11 PM CDT
Astronomical Twilight 5:32 AM CDT 8:41 PM CDT
Moon 12:19 AM CDT 2:29 PM CDT
Length of Visible Light 13h 10m
Length of Day
12h 20m
Tomorrow will be 2m 4s shorter.
Last Quarter, 43% of the Moon is Illuminated
Today
Last Quarter
Sep 24
New
Oct 1
First Quarter
Oct 8
Full
Oct 15
Last Quarter

Today's Extremes

State Highs State Lows

Community

WunderPhotos

Upload Photos

1,753,856 photos uploaded!

WunderBlogs® & News

Nearby

Snow Depth

Station Depth Elevation
No new snow has been reported.

Earthquake Activity

City Distance Mag. Time & Date
No recent earthquake activity has been reported nearby.
Minimum magnitude displayed is 2.5.

Coastal Water Temperatures

Place Temperature
No Stations Reporting

Nearby Weather Stations